Terminal Aerodrome Forecast
Issued by NWS Tampa Bay Area, FL

Home | Current Version | Previous Version | Text Only | Print | Product List | Glossary On
Versions: 1 2 3 4 5 6 7 8 9 10 11 12 13 14 15 16 17 18 19 20 21 22 23 24 25 26
000
FTUS42 KTBW 200500
TAFTPA
TAF
KTPA 200539Z 2006/2106 08005KT 5SM -SHRA SCT010 OVC025
     FM201200 10005KT P6SM VCTS SCT025CB OVC030
     FM201800 24006KT P6SM VCTS SCT020CB OVC035
     FM210100 VRB06KT P6SM VCSH SCT020 BKN050=

USA.gov is the U.S. government's official web portal to all federal, state and local government web resources and services.